createdAt,value
2018-06-11T00:53:18.367Z,22.30
2018-06-11T00:55:57.943Z,22.30
2018-06-11T00:58:26.320Z,22.00
2018-06-11T01:28:05.553Z,21.50
2018-06-11T03:41:34.996Z,21.60
2018-06-11T03:44:03.433Z,21.50
2018-06-11T03:46:32.082Z,21.40
2018-06-11T03:49:00.663Z,21.40
2018-06-11T03:51:29.093Z,21.40
2018-06-11T03:58:54.580Z,21.40
2018-06-11T04:11:16.858Z,21.50
2018-06-11T04:13:45.488Z,21.50
2018-06-11T04:21:10.772Z,21.60
2018-06-11T04:28:35.460Z,21.50
2018-06-11T04:31:03.888Z,21.50
2018-06-11T04:33:32.324Z,21.50
2018-06-11T04:36:01.216Z,21.60
2018-06-11T04:38:29.639Z,21.60
2018-06-11T04:40:58.072Z,21.60
2018-06-11T04:43:27.083Z,21.70
2018-06-11T04:45:55.491Z,21.70
2018-06-11T04:48:23.956Z,21.70
2018-06-11T04:50:52.397Z,21.70
2018-06-11T04:53:20.939Z,21.70
2018-06-11T04:55:49.392Z,21.70
2018-06-11T04:58:17.827Z,21.60
2018-06-11T05:00:46.232Z,21.50
2018-06-11T05:03:14.669Z,21.50
2018-06-11T05:05:43.776Z,21.50
2018-06-11T05:08:13.408Z,21.50
2018-06-11T05:10:41.825Z,21.60
2018-06-11T05:13:10.511Z,21.70
2018-06-11T05:15:40.029Z,21.80
2018-06-11T05:18:08.415Z,21.80
2018-06-11T05:20:38.168Z,21.80
2018-06-11T05:23:06.590Z,21.80
2018-06-11T05:25:35.083Z,21.60
2018-06-11T05:28:03.887Z,21.50
2018-06-11T05:30:32.539Z,21.90
2018-06-11T05:33:01.869Z,21.20
2018-06-11T05:35:30.717Z,21.30
2018-06-11T05:37:59.521Z,21.40
2018-06-11T05:40:28.053Z,21.40
2018-06-11T05:42:57.695Z,21.40
2018-06-11T05:45:26.200Z,21.40
2018-06-11T05:47:54.958Z,21.50
2018-06-11T05:50:24.516Z,21.50
2018-06-11T05:52:52.934Z,21.70
2018-06-11T05:55:21.549Z,21.70
2018-06-11T05:57:49.962Z,21.70
2018-06-11T06:00:18.914Z,21.70
2018-06-11T06:02:47.320Z,21.70
2018-06-11T06:05:16.191Z,21.60
2018-06-11T06:07:45.568Z,21.70
2018-06-11T06:10:14.016Z,21.70
2018-06-11T06:12:42.420Z,21.80
2018-06-11T06:15:11.752Z,21.90
2018-06-11T06:17:40.363Z,21.90
2018-06-11T06:20:08.896Z,22.10
2018-06-11T06:22:38.009Z,22.20
2018-06-11T06:25:06.448Z,22.20
2018-06-11T06:27:34.860Z,22.30
2018-06-11T06:30:03.300Z,22.30
2018-06-11T06:32:32.493Z,22.30
2018-06-11T06:35:01.535Z,22.40
2018-06-11T06:37:30.976Z,22.50
2018-06-11T06:39:59.384Z,22.70
2018-06-11T06:42:27.822Z,22.80
2018-06-11T06:47:25.517Z,22.60
2018-06-11T06:49:54.476Z,22.70
2018-06-11T06:52:22.899Z,22.70
2018-06-11T06:54:52.263Z,22.60
2018-06-11T06:57:20.889Z,22.90
2018-06-11T06:59:53.100Z,23.10
2018-06-11T07:02:21.817Z,23.20
2018-06-11T07:04:51.532Z,23.10
2018-06-11T07:19:42.495Z,23.90
2018-06-11T07:22:11.289Z,24.00
2018-06-11T07:24:39.691Z,24.10
2018-06-11T07:27:08.755Z,24.10
2018-06-11T07:29:37.638Z,24.10
2018-06-11T07:32:07.009Z,24.20
2018-06-11T07:34:35.701Z,23.90
2018-06-11T07:37:05.208Z,23.90
2018-06-11T07:39:34.501Z,24.00
2018-06-11T07:42:02.909Z,24.00
2018-06-11T07:44:32.335Z,24.20
2018-06-11T07:47:01.536Z,24.20
2018-06-11T07:49:29.921Z,24.30
2018-06-11T07:51:59.050Z,24.30
2018-06-11T07:54:27.680Z,24.30
2018-06-11T07:56:57.532Z,24.40
2018-06-11T07:59:25.912Z,24.30
2018-06-11T08:01:54.335Z,24.20
2018-06-11T08:04:23.407Z,24.20
2018-06-11T08:06:52.039Z,24.20
2018-06-11T08:09:20.451Z,24.30
2018-06-11T08:11:48.828Z,24.40
2018-06-11T08:14:17.187Z,24.40
2018-06-11T08:16:45.592Z,24.40
2018-06-11T08:19:14.119Z,24.50
2018-06-11T08:21:42.517Z,24.60
2018-06-11T08:24:12.207Z,24.70
2018-06-11T08:26:40.592Z,24.70
2018-06-11T08:31:37.097Z,25.20
2018-06-11T08:34:05.591Z,25.20
2018-06-11T08:36:34.400Z,25.10
2018-06-11T08:41:37.451Z,25.00
2018-06-11T08:44:09.063Z,25.00
2018-06-11T08:49:08.085Z,25.20
2018-06-11T08:51:36.850Z,25.30
2018-06-11T08:54:06.296Z,25.50
2018-06-11T08:56:34.734Z,25.60
2018-06-11T08:59:03.115Z,25.60
2018-06-11T09:01:31.541Z,25.50
2018-06-11T09:04:00.168Z,25.60
2018-06-11T09:06:29.060Z,25.70
2018-06-11T09:08:57.491Z,25.80
2018-06-11T09:11:26.510Z,25.90
2018-06-11T09:13:55.131Z,26.00
2018-06-11T09:16:23.549Z,26.10
2018-06-11T09:18:52.013Z,26.10
2018-06-11T09:21:20.832Z,26.10
2018-06-11T09:23:50.437Z,26.00
2018-06-11T09:26:19.339Z,25.90
2018-06-11T09:28:49.548Z,25.90
2018-06-11T09:31:18.446Z,25.90
2018-06-11T09:33:48.257Z,26.00
2018-06-11T09:36:17.348Z,26.00
2018-06-11T09:38:46.540Z,25.90
2018-06-11T09:41:15.352Z,26.00
2018-06-11T09:43:44.036Z,26.00
2018-06-11T09:46:13.116Z,26.10
2018-06-11T09:48:42.181Z,25.90
2018-06-11T09:51:11.564Z,26.60
2018-06-11T09:56:08.392Z,26.80
2018-06-11T09:58:38.099Z,26.80
2018-06-11T10:01:07.318Z,26.70
2018-06-11T15:25:21.940Z,26.90
2018-06-11T15:27:51.612Z,26.90
2018-06-11T15:30:20.947Z,26.80
2018-06-11T15:35:18.557Z,26.40
2018-06-11T15:37:47.603Z,26.00
2018-06-11T15:40:16.244Z,26.00
2018-06-11T15:42:45.113Z,25.80
2018-06-11T15:47:43.308Z,25.90
2018-06-11T15:50:12.275Z,25.90
2018-06-11T15:52:42.001Z,26.00
2018-06-11T15:55:10.391Z,26.00
2018-06-11T15:57:39.522Z,25.70
2018-06-11T16:00:08.003Z,25.50
2018-06-11T16:02:37.896Z,25.40
2018-06-11T16:05:06.453Z,25.20
2018-06-11T16:07:34.873Z,25.10
2018-06-11T16:10:03.695Z,24.90
2018-06-11T16:12:32.804Z,24.80
2018-06-11T16:15:01.234Z,24.40
2018-06-11T16:17:30.014Z,24.00
2018-06-11T16:22:28.357Z,23.60
2018-06-11T16:24:57.688Z,23.50
2018-06-11T16:27:27.279Z,23.30
2018-06-11T16:29:56.665Z,23.00
2018-06-11T16:32:25.412Z,22.70
2018-06-11T16:34:53.831Z,22.50
2018-06-11T16:37:22.633Z,22.40
2018-06-11T16:39:51.436Z,22.30
2018-06-11T16:42:20.246Z,22.20
2018-06-11T16:44:49.036Z,22.20
2018-06-11T16:47:18.448Z,22.30
2018-06-11T16:49:47.767Z,22.10
2018-06-11T16:52:16.148Z,22.20
2018-06-11T16:54:44.989Z,22.20
2018-06-11T16:57:13.775Z,22.10
2018-06-11T16:59:42.805Z,22.20
2018-06-11T17:02:11.164Z,22.30
2018-06-11T17:04:39.534Z,22.40
2018-06-11T17:07:07.901Z,22.40
2018-06-11T17:09:36.291Z,22.20
2018-06-11T17:12:04.692Z,22.10
2018-06-11T17:14:33.075Z,22.10
2018-06-11T17:17:01.439Z,22.00
2018-06-11T17:19:29.831Z,21.90
2018-06-11T17:21:58.213Z,21.90
2018-06-11T17:24:26.584Z,22.00
2018-06-11T17:26:54.956Z,22.00
2018-06-11T17:29:23.328Z,22.00
2018-06-11T17:31:51.770Z,22.00
2018-06-11T17:34:20.108Z,21.80
2018-06-11T17:36:48.464Z,21.70
2018-06-11T17:39:16.894Z,21.70
2018-06-11T17:41:45.259Z,21.80
2018-06-11T17:44:13.656Z,21.90
2018-06-11T17:46:42.015Z,21.90
2018-06-11T17:49:10.392Z,21.90
2018-06-11T17:51:38.788Z,22.00
2018-06-11T17:54:09.656Z,22.00
2018-06-11T17:56:38.009Z,22.00
2018-06-11T17:59:06.450Z,22.10
2018-06-11T18:01:34.769Z,22.10
2018-06-11T18:04:03.206Z,22.30
2018-06-11T18:06:31.588Z,22.30
2018-06-11T18:08:59.960Z,22.10
2018-06-11T18:11:28.350Z,22.20
2018-06-11T18:13:56.724Z,22.30
2018-06-11T18:16:25.089Z,22.40
2018-06-11T18:18:53.435Z,22.20
2018-06-11T18:21:21.827Z,22.10
2018-06-11T18:23:50.176Z,22.10
2018-06-11T18:26:18.550Z,22.10
2018-06-11T18:28:46.915Z,22.30
2018-06-11T18:31:15.311Z,22.30
2018-06-11T18:33:43.684Z,22.30
2018-06-11T18:36:12.055Z,22.30
2018-06-11T18:38:40.420Z,22.20
2018-06-11T18:41:08.821Z,22.20
2018-06-11T18:43:37.232Z,22.30
2018-06-11T18:46:05.630Z,22.40
2018-06-11T18:48:34.016Z,22.50
2018-06-11T18:51:02.414Z,22.50
2018-06-11T18:53:30.775Z,22.50
2018-06-11T18:55:59.144Z,22.50
2018-06-11T18:58:27.537Z,22.40
2018-06-11T19:00:55.979Z,22.50
2018-06-11T19:03:24.327Z,22.50
2018-06-11T19:05:55.336Z,22.60
2018-06-11T19:08:29.224Z,22.60
2018-06-11T19:11:02.312Z,22.70
2018-06-11T19:13:36.870Z,22.40
2018-06-11T19:16:07.296Z,22.40
2018-06-11T19:18:37.026Z,22.30
2018-06-11T19:21:10.636Z,21.90
2018-06-11T19:23:41.598Z,21.90
2018-06-11T19:26:10.590Z,21.70
2018-06-11T19:28:39.537Z,21.70
2018-06-11T19:31:10.815Z,21.80
2018-06-11T19:33:44.536Z,21.90
2018-06-11T19:36:17.204Z,21.90
2018-06-11T19:38:46.864Z,21.80
2018-06-11T19:41:16.828Z,21.50
2018-06-11T19:43:45.799Z,22.20
2018-06-11T19:46:15.713Z,21.50
2018-06-11T19:48:49.977Z,21.50
2018-06-11T19:51:20.213Z,21.60
2018-06-11T19:53:49.441Z,21.80
2018-06-11T19:56:18.581Z,21.90
2018-06-11T19:58:48.473Z,22.00
2018-06-11T20:01:33.660Z,22.00
2018-06-11T20:04:03.168Z,21.90
2018-06-11T20:06:33.648Z,21.80
2018-06-11T20:09:04.680Z,21.80
2018-06-11T20:11:34.301Z,21.70
2018-06-11T20:14:03.376Z,21.50
2018-06-11T20:16:33.380Z,21.50
2018-06-11T20:19:01.829Z,21.50
2018-06-11T20:21:34.442Z,21.60
2018-06-11T20:24:05.209Z,21.80
2018-06-11T20:26:34.136Z,23.30
2018-06-11T20:29:02.813Z,21.80
2018-06-11T20:31:31.753Z,21.90
2018-06-11T20:34:01.353Z,21.90
2018-06-11T20:36:30.860Z,21.90
2018-06-11T20:38:59.484Z,21.90
2018-06-11T20:41:28.680Z,22.00
2018-06-11T20:43:57.292Z,22.00
2018-06-11T20:46:27.576Z,22.10
2018-06-11T20:48:56.187Z,22.00
2018-06-11T20:51:25.664Z,22.00
2018-06-11T20:53:54.457Z,21.90
2018-06-11T20:56:23.693Z,21.90
2018-06-11T20:58:53.022Z,22.00
2018-06-11T21:01:21.453Z,22.00
2018-06-11T21:03:50.136Z,21.90
2018-06-11T21:06:18.560Z,22.00
2018-06-11T21:08:46.952Z,21.90
2018-06-11T21:11:19.155Z,21.80
2018-06-11T21:16:48.967Z,21.80
2018-06-11T21:19:19.693Z,21.80
2018-06-11T21:21:48.137Z,21.80
2018-06-11T21:24:16.585Z,21.70
2018-06-11T21:26:45.010Z,21.70
2018-06-11T21:29:13.427Z,21.70
2018-06-11T21:31:42.255Z,21.80
2018-06-11T21:34:10.869Z,21.90
2018-06-11T21:36:39.307Z,21.90
2018-06-11T21:39:08.580Z,21.90
2018-06-11T21:41:37.364Z,21.90
2018-06-11T21:44:06.028Z,21.90
2018-06-11T21:46:34.458Z,21.90
2018-06-11T21:49:03.027Z,21.80
2018-06-11T21:51:32.172Z,21.50
2018-06-11T21:54:00.650Z,21.40
2018-06-11T21:56:29.435Z,21.50
2018-06-11T21:58:58.862Z,21.50
2018-06-11T22:01:28.324Z,21.60
2018-06-11T22:03:57.849Z,21.70
2018-06-11T22:06:26.180Z,21.70
2018-06-11T22:08:55.316Z,21.70
2018-06-11T22:11:23.771Z,21.80
2018-06-11T22:13:53.576Z,21.80
2018-06-11T22:16:21.977Z,21.70
2018-06-11T22:18:50.436Z,21.70
2018-06-11T22:21:20.148Z,21.60
2018-06-11T22:23:48.591Z,21.60
2018-06-11T22:26:17.911Z,21.70
2018-06-11T22:28:46.368Z,21.70
2018-06-11T22:31:14.790Z,21.70
2018-06-11T22:33:43.232Z,21.70
2018-06-11T22:36:12.436Z,21.70
2018-06-11T22:38:40.880Z,21.70
2018-06-11T22:41:10.321Z,21.70
2018-06-11T22:43:38.752Z,21.60
2018-06-11T22:46:07.388Z,21.70
2018-06-11T22:51:04.265Z,21.60
2018-06-11T22:53:33.267Z,21.50
2018-06-11T22:56:01.706Z,21.50
2018-06-11T22:58:30.624Z,21.50
2018-06-11T23:00:59.058Z,21.50
2018-06-11T23:03:28.404Z,21.70
2018-06-11T23:05:57.396Z,21.70
2018-06-11T23:08:25.956Z,21.70
2018-06-11T23:10:54.380Z,21.80
2018-06-11T23:13:22.824Z,21.90
2018-06-11T23:15:51.224Z,21.90
2018-06-11T23:18:19.637Z,21.80
2018-06-11T23:20:48.059Z,21.80
2018-06-11T23:23:16.479Z,21.90
2018-06-11T23:25:45.589Z,21.80
2018-06-11T23:28:15.360Z,21.80
2018-06-11T23:30:43.799Z,21.60
2018-06-11T23:33:12.234Z,21.70
2018-06-11T23:35:41.085Z,21.70
2018-06-11T23:38:09.512Z,21.70
2018-06-11T23:40:38.779Z,21.70
2018-06-11T23:43:07.195Z,21.60
2018-06-11T23:45:35.688Z,21.70
2018-06-11T23:48:05.099Z,21.60
2018-06-11T23:53:01.893Z,21.60
2018-06-11T23:55:30.332Z,21.60
2018-06-11T23:57:59.025Z,21.60
